Hockingport, OH (45739)

17:23 EDT le 27 août 2015 (GMT -0400)
Decatur TWP | | Change Station
CLOSE
Current Station
Stations météorologiques personnelles
Location: Little Hocking, OH
Altitude: 719 ft
Stations météo à proximité

Alt. 719 ft 39.31 °N, 81.73 °W | Updated 13 minutes ago

Partiellement nuageux
Partiellement nuageux
76.9 ° F
Paraît 79 ° F
N
0.0
Vent Variable Vent de Nord
Gusts 0.0 mph

Aujourd'hui
Haut(e) -- | Bas -- ° F
--% Risque de précip.
Hier
Haut(e) -- | Bas -- ° F
Precip. -- pouce
6:50 AM 8:05 PM
Lune gibbeuse croissante, 95% visible
Pression 30.14 pouce
Visibilité 10.0 Miles terrestres
Nuages Nuages épars 5000 ft
indice de chaleur 79 ° F
Point de rosée 59 ° F
Humidité 54%
Précipitations 0.00 pouce
Profondeur de la couche neigeuse Non disponible.
UV 3 sur 12
Pollen 8.70 sur 12
Qualité de l'air Non disponible.
Flu Activity Non disponible.
METAR KPKB 272053Z 06005KT 10SM SCT050 24/11 A3015 RMK AO2 SLP204 T02440111 56019
Pression 30.14 pouce
Visibilité 10.0 Miles terrestres
Nuages Nuages épars 5000 ft
indice de chaleur 79 ° F
Point de rosée 59 ° F
Humidité 54%
Précipitations 0.00 pouce
Profondeur de la couche neigeuse Non disponible.
UV 3 sur 12
Pollen 8.70 sur 12
Qualité de l'air Non disponible.
Flu Activity Non disponible.
METAR KPKB 272053Z 06005KT 10SM SCT050 24/11 A3015 RMK AO2 SLP204 T02440111 56019

10-Day Weather Forecast

×

Almanac

Astronomie

Aug. 27, 2015 Lever Coucher
Temps réel
Crépuscule civil
Crépuscule nautique
Crépuscule astronomique
Lune
Durée de lumière visible
Longueur du jour
Tomorrow will be .
, % of the Moon is Illuminated

Extrêmes aujourd'hui

State Highs State Lows

Community

WunderPhotos

Upload Photos

1,850,235 Photos téléchargées !

WunderBlogs® & News

Nearby

Qualité de l'air

  Qualité de l'air Indice de la qualité de l'air Polluant
Not available.

Épaisseur de neige

Station Depth Altitude

Activité sismique

Ville Distance Mag. Time & Date
Minimum magnitude displayed is 2.5.

Températures des eaux côtières

Lieu Température

Stations

Stations météo à proximité

Emplacement de la station Température Refroidissement éolien Point de rosée Humidité Vent Precip. Alt. Mise à jour Type